createdAt,value
2022-10-23T00:00:58.957Z,14.42
2022-10-23T00:03:40.138Z,14.31
2022-10-23T00:06:14.817Z,14.43
2022-10-23T00:08:48.938Z,14.31
2022-10-23T00:11:24.397Z,14.37
2022-10-23T00:13:59.137Z,14.22
2022-10-23T00:16:32.303Z,14.19
2022-10-23T00:19:04.698Z,14.19
2022-10-23T00:21:39.677Z,14.12
2022-10-23T00:24:12.712Z,14.22
2022-10-23T00:26:45.118Z,14.18
2022-10-23T00:29:17.426Z,14.14
2022-10-23T00:31:49.319Z,14.11
2022-10-23T00:34:21.697Z,13.98
2022-10-23T00:36:56.118Z,14.23
2022-10-23T00:39:28.599Z,14.20
2022-10-23T00:42:00.456Z,14.12
2022-10-23T00:45:05.523Z,14.03
2022-10-23T00:47:37.437Z,14.18
2022-10-23T00:50:10.546Z,14.24
2022-10-23T00:52:50.078Z,14.25
2022-10-23T00:55:24.537Z,14.46
2022-10-23T00:57:56.960Z,14.41
2022-10-23T01:00:45.620Z,14.54
2022-10-23T01:03:18.904Z,14.47
2022-10-23T01:05:56.698Z,14.62
2022-10-23T01:08:38.938Z,14.55
2022-10-23T01:11:16.376Z,14.51
2022-10-23T01:13:57.857Z,14.52
2022-10-23T01:16:37.929Z,14.58
2022-10-23T01:19:18.037Z,14.50
2022-10-23T01:21:58.956Z,14.61
2022-10-23T01:24:51.877Z,14.47
2022-10-23T01:27:30.141Z,14.48
2022-10-23T01:30:09.277Z,14.41
2022-10-23T01:32:51.017Z,14.38
2022-10-23T01:35:26.479Z,14.39
2022-10-23T01:38:04.718Z,14.40
2022-10-23T01:40:41.298Z,14.28
2022-10-23T01:43:21.298Z,14.48
2022-10-23T01:45:58.358Z,14.45
2022-10-23T01:48:33.518Z,14.39
2022-10-23T01:51:09.558Z,14.43
2022-10-23T01:53:46.876Z,14.35
2022-10-23T01:56:23.416Z,14.40
2022-10-23T01:59:02.138Z,14.38
2022-10-23T02:01:38.197Z,14.38
2022-10-23T02:04:13.977Z,14.33
2022-10-23T02:06:46.338Z,14.31
2022-10-23T02:09:18.897Z,14.36
2022-10-23T02:11:57.778Z,14.40
2022-10-23T02:14:52.439Z,14.25
2022-10-23T02:17:33.545Z,14.31
2022-10-23T02:20:17.197Z,14.35
2022-10-23T02:22:59.117Z,14.43
2022-10-23T02:25:38.404Z,14.50
2022-10-23T02:28:18.436Z,14.62
2022-10-23T02:30:53.878Z,14.60
2022-10-23T02:33:27.717Z,14.54
2022-10-23T02:36:00.376Z,14.44
2022-10-23T02:38:40.858Z,14.35
2022-10-23T02:41:41.618Z,14.21
2022-10-23T02:44:28.778Z,14.25
2022-10-23T02:47:19.538Z,14.13
2022-10-23T02:50:00.917Z,14.00
2022-10-23T02:52:40.518Z,13.97
2022-10-23T02:55:25.379Z,13.99
2022-10-23T02:58:10.659Z,13.93
2022-10-23T03:00:49.598Z,14.04
2022-10-23T03:03:30.439Z,13.80
2022-10-23T03:06:02.739Z,13.73
2022-10-23T03:08:44.878Z,13.70
2022-10-23T03:11:17.159Z,13.64
2022-10-23T03:13:49.657Z,13.60
2022-10-23T03:16:21.897Z,13.55
2022-10-23T03:18:57.057Z,13.53
2022-10-23T03:21:29.059Z,13.49
2022-10-23T03:24:01.539Z,13.51
2022-10-23T03:26:33.618Z,13.49
2022-10-23T03:29:06.218Z,13.45
2022-10-23T03:31:38.376Z,13.55
2022-10-23T03:34:15.259Z,13.40
2022-10-23T03:36:47.436Z,13.41
2022-10-23T03:39:20.657Z,13.45
2022-10-23T03:41:52.683Z,13.29
2022-10-23T03:44:25.059Z,13.28
2022-10-23T03:46:57.298Z,13.49
2022-10-23T03:49:32.538Z,13.50
2022-10-23T03:52:04.820Z,13.53
2022-10-23T03:54:37.418Z,13.40
2022-10-23T03:57:09.438Z,13.40
2022-10-23T03:59:41.937Z,13.41
2022-10-23T04:02:14.221Z,13.32
2022-10-23T04:04:51.179Z,13.32
2022-10-23T04:07:23.099Z,13.19
2022-10-23T04:09:55.239Z,13.27
2022-10-23T04:12:27.598Z,13.26
2022-10-23T04:15:00.083Z,13.22
2022-10-23T04:17:32.202Z,13.15
2022-10-23T04:20:07.406Z,13.16
2022-10-23T04:22:39.159Z,12.97
2022-10-23T04:25:27.658Z,12.87
2022-10-23T04:28:11.618Z,12.93
2022-10-23T04:30:43.621Z,12.89
2022-10-23T04:33:15.417Z,12.79
2022-10-23T04:35:50.378Z,12.70
2022-10-23T04:38:22.277Z,12.69
2022-10-23T04:40:54.318Z,12.73
2022-10-23T04:43:25.987Z,12.82
2022-10-23T04:45:58.198Z,12.81
2022-10-23T04:48:29.838Z,12.75
2022-10-23T04:51:07.317Z,12.69
2022-10-23T04:53:39.598Z,12.64
2022-10-23T04:56:16.358Z,12.71
2022-10-23T04:58:48.139Z,12.61
2022-10-23T05:01:20.397Z,12.56
2022-10-23T05:03:54.337Z,12.54
2022-10-23T05:06:29.125Z,12.48
2022-10-23T05:09:00.938Z,12.50
2022-10-23T05:11:33.217Z,12.56
2022-10-23T05:14:05.117Z,12.57
2022-10-23T05:16:42.798Z,12.51
2022-10-23T05:19:24.270Z,12.48
2022-10-23T05:22:00.117Z,12.57
2022-10-23T05:24:32.298Z,12.73
2022-10-23T05:27:04.399Z,12.71
2022-10-23T05:29:36.318Z,12.77
2022-10-23T05:32:11.257Z,12.62
2022-10-23T05:34:43.858Z,12.72
2022-10-23T05:37:20.299Z,12.59
2022-10-23T05:39:52.358Z,12.53
2022-10-23T05:42:24.298Z,12.64
2022-10-23T05:44:58.256Z,12.72
2022-10-23T05:47:31.856Z,12.74
2022-10-23T05:50:03.479Z,12.61
2022-10-23T05:52:38.317Z,12.58
2022-10-23T05:55:10.898Z,12.52
2022-10-23T05:57:43.221Z,12.54
2022-10-23T06:00:16.376Z,12.51
2022-10-23T06:02:48.759Z,12.62
2022-10-23T06:05:20.929Z,12.62
2022-10-23T06:07:56.178Z,12.69
2022-10-23T06:10:28.525Z,12.74
2022-10-23T06:13:01.079Z,12.75
2022-10-23T06:15:33.140Z,12.65
2022-10-23T06:18:05.638Z,12.66
2022-10-23T06:20:40.398Z,13.00
2022-10-23T06:23:15.517Z,12.77
2022-10-23T06:26:02.958Z,12.79
2022-10-23T06:28:35.417Z,12.75
2022-10-23T06:31:09.079Z,12.65
2022-10-23T06:33:41.967Z,12.72
2022-10-23T06:36:14.298Z,12.69
2022-10-23T06:38:49.855Z,12.73
2022-10-23T06:41:24.520Z,12.86
2022-10-23T06:43:56.919Z,12.96
2022-10-23T06:46:33.336Z,13.06
2022-10-23T06:49:05.858Z,13.06
2022-10-23T06:51:38.098Z,13.21
2022-10-23T06:54:14.737Z,13.21
2022-10-23T06:56:47.037Z,13.25
2022-10-23T06:59:19.818Z,13.29
2022-10-23T07:01:52.140Z,13.63
2022-10-23T07:04:24.598Z,13.46
2022-10-23T07:06:59.118Z,13.52
2022-10-23T07:09:34.519Z,13.52
2022-10-23T07:12:06.901Z,13.57
2022-10-23T07:14:39.457Z,13.60
2022-10-23T07:17:11.577Z,13.78
2022-10-23T07:19:43.978Z,14.05
2022-10-23T07:22:16.316Z,13.94
2022-10-23T07:24:51.717Z,14.14
2022-10-23T07:27:23.799Z,14.52
2022-10-23T07:29:56.643Z,14.31
2022-10-23T07:32:28.919Z,14.26
2022-10-23T07:35:02.454Z,14.38
2022-10-23T07:37:34.698Z,14.64
2022-10-23T07:40:12.579Z,14.56
2022-10-23T07:42:44.938Z,14.77
2022-10-23T07:45:50.919Z,14.59
2022-10-23T07:48:24.281Z,14.61
2022-10-23T07:50:57.217Z,14.82
2022-10-23T07:53:30.178Z,14.86
2022-10-23T07:56:07.717Z,14.77
2022-10-23T07:58:39.858Z,15.06
2022-10-23T08:01:20.979Z,15.22
2022-10-23T08:03:53.098Z,15.54
2022-10-23T08:06:25.799Z,15.66
2022-10-23T08:08:59.920Z,15.70
2022-10-23T08:11:38.480Z,15.82
2022-10-23T08:14:11.476Z,15.86
2022-10-23T08:16:44.220Z,15.64
2022-10-23T08:19:16.757Z,15.77
2022-10-23T08:21:49.338Z,15.63
2022-10-23T08:24:21.597Z,15.74
2022-10-23T08:26:56.918Z,15.89
2022-10-23T08:29:29.197Z,16.12
2022-10-23T08:32:01.717Z,16.13
2022-10-23T08:34:53.196Z,16.00
2022-10-23T08:37:25.846Z,16.03
2022-10-23T08:39:58.459Z,16.11
2022-10-23T08:42:33.759Z,16.61
2022-10-23T08:45:14.943Z,17.40
2022-10-23T08:47:51.638Z,18.12
2022-10-23T08:53:28.597Z,19.03
2022-10-23T08:56:05.478Z,19.42
2022-10-23T08:58:46.741Z,19.73
2022-10-23T09:01:34.858Z,19.82
2022-10-23T09:04:32.039Z,19.65
2022-10-23T09:07:13.580Z,20.00
2022-10-23T09:09:58.496Z,20.26
2022-10-23T09:12:34.339Z,20.97
2022-10-23T09:15:18.358Z,21.41
2022-10-23T09:17:59.938Z,21.47
2022-10-23T09:20:37.837Z,21.48
2022-10-23T09:23:17.999Z,21.43
2022-10-23T09:25:57.280Z,21.53
2022-10-23T09:29:22.238Z,22.10
2022-10-23T09:32:43.382Z,22.08
2022-10-23T09:35:24.859Z,22.45
2022-10-23T09:38:23.640Z,22.72
2022-10-23T09:40:56.819Z,22.80
2022-10-23T09:43:29.738Z,22.70
2022-10-23T09:46:05.597Z,22.94
2022-10-23T09:48:45.538Z,23.20
2022-10-23T09:51:22.158Z,23.07
2022-10-23T09:53:57.645Z,23.04
2022-10-23T09:56:34.179Z,24.08
2022-10-23T09:59:09.957Z,24.45
2022-10-23T10:01:51.684Z,24.44
2022-10-23T10:04:35.639Z,23.95
2022-10-23T10:07:19.198Z,24.14
2022-10-23T10:09:52.645Z,24.19
2022-10-23T10:12:42.388Z,24.07
2022-10-23T10:15:23.520Z,24.07
2022-10-23T10:18:08.478Z,24.50
2022-10-23T10:21:05.795Z,25.00
2022-10-23T10:23:49.328Z,25.12
2022-10-23T10:26:34.231Z,24.33
2022-10-23T10:29:19.870Z,24.46
2022-10-23T10:32:02.549Z,23.66
2022-10-23T10:34:43.330Z,23.44
2022-10-23T10:37:43.895Z,23.33
2022-10-23T10:40:28.066Z,23.60
2022-10-23T10:43:19.743Z,22.99
2022-10-23T10:45:56.804Z,23.46
2022-10-23T10:48:50.564Z,24.02
2022-10-23T10:51:31.665Z,23.45
2022-10-23T10:54:27.272Z,22.91
2022-10-23T10:57:02.987Z,23.01
2022-10-23T10:59:42.925Z,22.76
2022-10-23T11:02:29.263Z,21.76
2022-10-23T11:05:09.323Z,22.25
2022-10-23T11:07:46.562Z,22.31
2022-10-23T11:10:23.102Z,22.02
2022-10-23T11:12:55.729Z,22.46
2022-10-23T11:15:32.522Z,22.29
2022-10-23T11:18:10.044Z,22.00
2022-10-23T11:21:09.225Z,21.49
2022-10-23T11:24:01.169Z,21.83
2022-10-23T11:26:51.730Z,22.35
2022-10-23T11:29:47.944Z,22.71
2022-10-23T11:32:53.144Z,22.56
2022-10-23T11:35:42.096Z,22.10
2022-10-23T11:38:21.635Z,21.93
2022-10-23T11:40:57.110Z,22.05
2022-10-23T11:43:34.635Z,22.35
2022-10-23T11:46:32.914Z,22.32
2022-10-23T11:49:06.638Z,22.03
2022-10-23T11:52:05.354Z,22.20
2022-10-23T11:55:06.075Z,22.13
2022-10-23T11:57:38.277Z,21.44
2022-10-23T12:00:28.057Z,21.40
2022-10-23T12:03:25.493Z,21.36
2022-10-23T12:06:05.137Z,21.58
2022-10-23T12:08:41.876Z,21.37
2022-10-23T12:11:33.263Z,21.23
2022-10-23T12:14:05.619Z,21.16
2022-10-23T12:16:43.422Z,21.36
2022-10-23T12:19:24.197Z,21.25
2022-10-23T12:22:00.601Z,21.43
2022-10-23T12:24:47.455Z,21.43
2022-10-23T12:27:36.757Z,21.06
2022-10-23T12:30:22.874Z,20.78
2022-10-23T12:33:12.916Z,21.08
2022-10-23T12:36:12.976Z,20.93
2022-10-23T12:38:50.337Z,20.32
2022-10-23T12:41:27.763Z,20.39
2022-10-23T12:44:02.696Z,20.36
2022-10-23T12:46:39.176Z,20.48
2022-10-23T12:49:21.341Z,20.47
2022-10-23T12:52:00.060Z,20.51
2022-10-23T12:54:34.514Z,20.42
2022-10-23T12:57:24.235Z,20.46
2022-10-23T13:00:02.659Z,20.64
2022-10-23T13:02:37.829Z,20.96
2022-10-23T13:05:17.737Z,20.98
2022-10-23T13:07:52.657Z,20.87
2022-10-23T13:10:27.431Z,20.95
2022-10-23T13:13:05.899Z,20.85
2022-10-23T13:15:42.997Z,20.94
2022-10-23T13:18:32.494Z,20.88
2022-10-23T13:21:08.175Z,21.01
2022-10-23T13:23:43.816Z,20.75
2022-10-23T13:26:29.175Z,20.67
2022-10-23T13:29:08.750Z,20.58
2022-10-23T13:31:41.834Z,20.64
2022-10-23T13:34:29.175Z,20.56
2022-10-23T13:37:23.474Z,20.18
2022-10-23T13:40:08.077Z,20.21
2022-10-23T13:42:40.322Z,20.28
2022-10-23T13:45:21.850Z,20.55
2022-10-23T13:47:56.393Z,20.51
2022-10-23T13:50:29.144Z,20.38
2022-10-23T13:53:06.151Z,20.31
2022-10-23T13:55:39.733Z,20.39
2022-10-23T13:58:12.653Z,20.06
2022-10-23T14:00:46.111Z,20.05
2022-10-23T14:03:19.111Z,19.91
2022-10-23T14:05:51.670Z,20.03
2022-10-23T14:08:26.476Z,20.09
2022-10-23T14:10:58.870Z,20.08
2022-10-23T14:13:32.290Z,19.99
2022-10-23T14:16:04.890Z,19.99
2022-10-23T14:18:37.511Z,19.91
2022-10-23T14:21:11.752Z,20.01
2022-10-23T14:23:48.553Z,20.08
2022-10-23T14:26:33.133Z,19.85
2022-10-23T14:29:17.791Z,19.71
2022-10-23T14:31:53.757Z,19.73
2022-10-23T14:34:25.778Z,19.53
2022-10-23T14:37:08.038Z,19.48
2022-10-23T14:39:48.877Z,19.50
2022-10-23T14:42:22.152Z,19.51
2022-10-23T14:44:54.080Z,19.40
2022-10-23T14:47:26.451Z,19.38
2022-10-23T14:49:58.849Z,19.39
2022-10-23T14:52:31.430Z,19.37
2022-10-23T14:55:06.074Z,19.28
2022-10-23T14:57:38.250Z,19.24
2022-10-23T15:00:11.616Z,19.24
2022-10-23T15:02:44.092Z,19.25
2022-10-23T15:05:16.269Z,19.33
2022-10-23T15:07:48.627Z,19.15
2022-10-23T15:10:23.248Z,19.19
2022-10-23T15:12:55.426Z,19.37
2022-10-23T15:15:29.866Z,19.27
2022-10-23T15:18:06.926Z,19.15
2022-10-23T15:20:38.828Z,19.08
2022-10-23T15:23:11.047Z,19.06
2022-10-23T15:25:45.668Z,19.10
2022-10-23T15:28:17.870Z,18.83
2022-10-23T15:30:49.769Z,18.87
2022-10-23T15:33:22.168Z,18.76
2022-10-23T15:35:54.770Z,18.67
2022-10-23T15:38:27.515Z,18.72
2022-10-23T15:41:23.717Z,18.49
2022-10-23T15:43:55.850Z,18.69
2022-10-23T15:46:27.756Z,18.51
2022-10-23T15:49:00.336Z,18.48
2022-10-23T15:51:32.598Z,18.18
2022-10-23T15:54:04.816Z,18.37
2022-10-23T15:56:39.617Z,18.10
2022-10-23T15:59:11.955Z,18.11
2022-10-23T16:01:44.281Z,18.18
2022-10-23T16:04:33.699Z,18.19
2022-10-23T16:07:07.457Z,18.23
2022-10-23T16:09:40.036Z,18.29
2022-10-23T16:12:14.798Z,18.29
2022-10-23T16:14:47.078Z,18.06
2022-10-23T16:17:19.599Z,18.17
2022-10-23T16:19:51.964Z,18.11
2022-10-23T16:22:23.778Z,17.89
2022-10-23T16:24:55.905Z,17.95
2022-10-23T16:27:30.396Z,17.99
2022-10-23T16:30:02.537Z,17.97
2022-10-23T16:32:35.125Z,18.02
2022-10-23T16:35:09.821Z,17.82
2022-10-23T16:37:44.494Z,17.77
2022-10-23T16:40:20.036Z,17.46
2022-10-23T16:42:54.617Z,17.42
2022-10-23T16:45:27.177Z,17.59
2022-10-23T16:47:58.976Z,17.60
2022-10-23T16:50:31.272Z,17.74
2022-10-23T16:53:03.324Z,17.65
2022-10-23T16:55:35.738Z,17.65
2022-10-23T16:58:29.956Z,17.67
2022-10-23T17:01:04.156Z,17.71
2022-10-23T17:03:53.662Z,17.64
2022-10-23T17:06:29.145Z,17.61
2022-10-23T17:09:02.483Z,17.60
2022-10-23T17:11:37.820Z,17.70
2022-10-23T17:14:17.657Z,17.60
2022-10-23T17:16:52.123Z,17.45
2022-10-23T17:19:43.689Z,17.56
2022-10-23T17:22:17.616Z,17.39
2022-10-23T17:24:51.627Z,17.42
2022-10-23T17:27:26.296Z,17.44
2022-10-23T17:30:01.115Z,17.52
2022-10-23T17:32:33.264Z,17.66
2022-10-23T17:35:07.216Z,17.71
2022-10-23T17:37:39.517Z,17.44
2022-10-23T17:40:12.612Z,17.31
2022-10-23T17:43:04.632Z,17.48
2022-10-23T17:45:40.653Z,17.43
2022-10-23T17:48:12.934Z,17.39
2022-10-23T17:50:44.854Z,17.39
2022-10-23T17:53:26.332Z,17.46
2022-10-23T17:56:00.893Z,17.41
2022-10-23T17:58:33.032Z,17.29
2022-10-23T18:01:10.795Z,17.13
2022-10-23T18:03:43.272Z,17.18
2022-10-23T18:06:17.216Z,17.38
2022-10-23T18:08:49.638Z,17.33
2022-10-23T18:11:23.435Z,17.29
2022-10-23T18:13:55.681Z,17.27
2022-10-23T18:16:30.755Z,17.33
2022-10-23T18:19:03.379Z,17.46
2022-10-23T18:21:36.074Z,17.36
2022-10-23T18:24:08.681Z,17.23
2022-10-23T18:26:40.773Z,17.16
2022-10-23T18:29:15.195Z,17.14
2022-10-23T18:31:50.914Z,17.12
2022-10-23T18:34:25.334Z,16.98
2022-10-23T18:36:58.195Z,17.02
2022-10-23T18:39:30.556Z,17.12
2022-10-23T18:42:02.315Z,16.91
2022-10-23T18:44:34.154Z,16.89
2022-10-23T18:47:09.486Z,16.96
2022-10-23T18:49:41.454Z,17.06
2022-10-23T18:52:13.220Z,16.94
2022-10-23T18:54:45.220Z,17.01
2022-10-23T18:57:16.893Z,16.95
2022-10-23T18:59:50.514Z,16.97
2022-10-23T19:02:24.927Z,16.90
2022-10-23T19:04:57.220Z,16.83
2022-10-23T19:07:29.153Z,16.87
2022-10-23T19:10:00.880Z,16.89
2022-10-23T19:12:32.594Z,16.74
2022-10-23T19:15:04.417Z,16.66
2022-10-23T19:17:39.286Z,16.75
2022-10-23T19:20:17.293Z,16.69
2022-10-23T19:22:52.375Z,16.68
2022-10-23T19:25:28.330Z,16.62
2022-10-23T19:28:01.738Z,16.48
2022-10-23T19:30:40.975Z,16.43
2022-10-23T19:33:15.231Z,16.44
2022-10-23T19:35:47.214Z,16.42
2022-10-23T19:38:18.911Z,16.24
2022-10-23T19:40:51.370Z,16.34
2022-10-23T19:43:22.850Z,16.39
2022-10-23T19:45:54.940Z,16.42
2022-10-23T19:48:29.090Z,16.32
2022-10-23T19:51:01.090Z,16.25
2022-10-23T19:53:33.938Z,16.33
2022-10-23T19:56:07.997Z,16.30
2022-10-23T19:58:40.064Z,16.44
2022-10-23T20:01:14.815Z,16.53
2022-10-23T20:03:50.225Z,16.45
2022-10-23T20:06:24.528Z,16.37
2022-10-23T20:08:56.923Z,16.33
2022-10-23T20:11:30.845Z,16.45
2022-10-23T20:14:03.370Z,16.43
2022-10-23T20:16:37.538Z,16.40
2022-10-23T20:22:10.185Z,16.45
2022-10-23T20:24:42.526Z,16.31
2022-10-23T20:27:14.946Z,16.44
2022-10-23T20:29:46.565Z,16.35
2022-10-23T20:32:18.907Z,16.15
2022-10-23T20:34:53.046Z,16.27
2022-10-23T20:37:24.825Z,16.21
2022-10-23T20:39:58.248Z,16.10
2022-10-23T20:42:30.066Z,16.12
2022-10-23T20:45:01.633Z,16.25
2022-10-23T20:47:33.545Z,16.09
2022-10-23T20:50:08.784Z,16.01
2022-10-23T20:52:40.727Z,15.92
2022-10-23T20:55:13.205Z,16.12
2022-10-23T20:57:59.029Z,16.01
2022-10-23T21:00:30.644Z,15.77
2022-10-23T21:03:04.384Z,15.70
2022-10-23T21:05:38.486Z,15.79
2022-10-23T21:08:10.283Z,15.71
2022-10-23T21:10:48.507Z,15.52
2022-10-23T21:13:20.363Z,15.52
2022-10-23T21:15:51.945Z,15.67
2022-10-23T21:18:27.361Z,15.51
2022-10-23T21:21:08.505Z,15.64
2022-10-23T21:23:41.172Z,15.40
2022-10-23T21:26:12.989Z,15.44
2022-10-23T21:28:55.823Z,15.46
2022-10-23T21:31:32.696Z,15.45
2022-10-23T21:34:04.856Z,15.40
2022-10-23T21:36:48.503Z,15.37
2022-10-23T21:39:31.245Z,15.45
2022-10-23T21:42:02.864Z,15.43
2022-10-23T21:44:34.733Z,15.47
2022-10-23T21:47:06.366Z,15.42
2022-10-23T21:49:38.288Z,15.36
2022-10-23T21:52:15.037Z,15.21
2022-10-23T21:54:49.627Z,15.45
2022-10-23T21:57:21.226Z,15.38
2022-10-23T21:59:53.064Z,15.60
2022-10-23T22:02:24.659Z,15.66
2022-10-23T22:04:56.605Z,15.68
2022-10-23T22:07:31.108Z,15.43
2022-10-23T22:10:03.445Z,15.27
2022-10-23T22:12:35.464Z,15.44
2022-10-23T22:15:08.686Z,15.65
2022-10-23T22:17:40.712Z,15.62
2022-10-23T22:20:13.546Z,15.93
2022-10-23T22:22:48.125Z,15.97
2022-10-23T22:25:20.545Z,16.06
2022-10-23T22:27:52.604Z,15.98
2022-10-23T22:30:24.726Z,15.91
2022-10-23T22:32:56.565Z,15.86
2022-10-23T22:35:28.865Z,15.70
2022-10-23T22:38:04.765Z,15.71
2022-10-23T22:40:45.633Z,15.62
2022-10-23T22:43:18.411Z,15.70
2022-10-23T22:45:50.525Z,15.77
2022-10-23T22:48:22.325Z,15.69
2022-10-23T22:50:57.065Z,15.93
2022-10-23T22:53:31.646Z,15.87
2022-10-23T22:56:03.584Z,15.94
2022-10-23T22:58:35.125Z,15.92
2022-10-23T23:01:10.902Z,15.82
2022-10-23T23:03:42.526Z,15.66
2022-10-23T23:06:15.185Z,15.75
2022-10-23T23:08:50.945Z,15.69
2022-10-23T23:11:24.793Z,15.82
2022-10-23T23:13:56.490Z,15.71
2022-10-23T23:16:31.725Z,15.66
2022-10-23T23:19:05.068Z,15.68
2022-10-23T23:21:36.945Z,15.45
2022-10-23T23:24:11.284Z,15.63
2022-10-23T23:26:43.255Z,15.60
2022-10-23T23:29:15.787Z,15.58
2022-10-23T23:32:29.526Z,15.46
2022-10-23T23:35:02.571Z,15.67
2022-10-23T23:37:34.645Z,15.32
2022-10-23T23:40:09.966Z,15.25
2022-10-23T23:42:42.043Z,15.50
2022-10-23T23:45:15.134Z,15.54
2022-10-23T23:47:47.274Z,15.75
2022-10-23T23:50:19.366Z,15.50
2022-10-23T23:52:51.205Z,15.50
2022-10-23T23:55:25.446Z,15.59
2022-10-23T23:57:57.226Z,15.60
